This is the latest recevied weather packets stored in our database for station/object KCCA. If no packets are shown the sender has not sent any weather packets the latest 10 day(s).
| Time | Temp. | Humidity | Pressure | Rain* | Wind** | Luminosity | Snow |
|---|---|---|---|---|---|---|---|
| 1777868606 | 12.78° C | 93% | 1014.2 hPa | - | - | - | - |
| 1777868006 | 13.89° C | 87% | 1014.6 hPa | - | - | - | - |
| 1777867535 | 13.89° C | 87% | 1014.6 hPa | - | - | - | - |
| 1777866807 | 13.89° C | 87% | 1014.6 hPa | - | - | - | - |
| 1777866210 | 13.89° C | 87% | 1014.6 hPa | - | - | - | - |
| 1777865609 | 13.89° C | 87% | 1014.6 hPa | - | - | - | - |
| 1777865014 | 13.89° C | 87% | 1014.6 hPa | - | - | - | - |
| 1777864410 | 13.89° C | 93% | 1014.2 hPa | - | - | - | - |
| 1777863811 | 13.89° C | 93% | 1014.2 hPa | - | - | - | - |
| 1777863213 | 15° C | 87% | 1014.2 hPa | - | - | - | - |
| 1777862608 | 15° C | 87% | 1014.2 hPa | - | - | - | - |
| 1777862016 | 15.56° C | 82% | 1014.2 hPa | - | - | - | - |
| 1777861414 | 15.56° C | 82% | 1014.2 hPa | - | - | - | - |
| 1777860810 | 15.56° C | 82% | 1013.9 hPa | - | - | - | - |
| 1777860217 | 15.56° C | 82% | 1013.9 hPa | - | - | - | - |
| 1777859612 | 17.78° C | 72% | 1013.9 hPa | - | - | - | - |
| 1777859012 | 17.78° C | 72% | 1013.9 hPa | - | - | - | - |
| 1777858415 | 18.89° C | 68% | 1013.9 hPa | - | - | - | - |
| 1777857816 | 18.89° C | 68% | 1013.9 hPa | - | - | - | - |
| 1777857216 | 20° C | 64% | 1013.5 hPa | - | - | - | - |
| 1777856617 | 20° C | 64% | 1013.5 hPa | - | - | - | - |
| 1777856017 | 22.78° C | 49% | 1013.5 hPa | - | - | - | - |
| 1777855414 | 22.78° C | 49% | 1013.5 hPa | - | - | - | - |
| 1777854819 | 23.89° C | 44% | 1013.5 hPa | - | - | - | - |
| 1777854213 | 23.89° C | 44% | 1013.5 hPa | - | - | - | - |
* Rain since midnight (hover to see other rain measurements)
** Current wind speed in m/s (hover to see current wind gust speed)